createdAt,value
2023-01-02T00:01:32.124Z,98683.95
2023-01-02T00:03:59.967Z,98688.20
2023-01-02T00:06:27.972Z,98697.23
2023-01-02T00:08:57.730Z,98691.91
2023-01-02T00:11:25.677Z,98693.25
2023-01-02T00:13:53.511Z,98697.45
2023-01-02T00:16:21.640Z,98688.16
2023-01-02T00:18:49.443Z,98692.67
2023-01-02T00:21:17.817Z,98691.61
2023-01-02T00:23:45.838Z,98686.07
2023-01-02T00:26:14.328Z,98687.67
2023-01-02T00:28:42.081Z,98689.05
2023-01-02T00:31:13.685Z,98687.46
2023-01-02T00:33:41.697Z,98695.75
2023-01-02T00:36:12.863Z,98697.88
2023-01-02T00:38:41.327Z,98697.39
2023-01-02T00:41:09.637Z,98698.20
2023-01-02T00:43:37.633Z,98675.71
2023-01-02T00:46:11.248Z,98688.40
2023-01-02T00:48:35.533Z,98689.20
2023-01-02T00:51:03.513Z,98695.05
2023-01-02T00:53:31.482Z,98691.28
2023-01-02T00:55:58.879Z,98697.93
2023-01-02T00:58:26.646Z,98693.40
2023-01-02T01:00:54.427Z,98692.56
2023-01-02T01:03:22.221Z,98695.73
2023-01-02T01:05:50.222Z,98692.55
2023-01-02T01:08:17.990Z,98692.83
2023-01-02T01:10:45.654Z,98687.51
2023-01-02T01:13:13.333Z,98686.17
2023-01-02T01:15:41.657Z,98682.45
2023-01-02T01:18:09.335Z,98668.43
2023-01-02T01:20:40.138Z,98683.43
2023-01-02T01:23:07.911Z,98686.61
2023-01-02T01:25:37.436Z,98688.73
2023-01-02T01:28:05.147Z,98684.74
2023-01-02T01:30:33.008Z,98677.52
2023-01-02T01:33:00.492Z,98679.12
2023-01-02T01:35:28.129Z,98679.12
2023-01-02T01:37:56.154Z,98676.72
2023-01-02T01:40:23.917Z,98675.65
2023-01-02T01:42:53.945Z,98671.62
2023-01-02T01:45:21.336Z,98674.80
2023-01-02T01:47:55.197Z,98673.17
2023-01-02T01:50:32.089Z,98670.52
2023-01-02T01:53:16.343Z,98669.97
2023-01-02T01:55:55.780Z,98675.81
2023-01-02T01:58:36.343Z,98671.73
2023-01-02T02:01:04.497Z,98668.53
2023-01-02T02:03:34.546Z,98668.23
2023-01-02T02:06:04.412Z,98667.41
2023-01-02T02:08:55.848Z,98668.44
2023-01-02T02:11:23.783Z,98671.34
2023-01-02T02:13:52.008Z,98668.64
2023-01-02T02:16:25.268Z,98668.32
2023-01-02T02:19:04.448Z,98673.06
2023-01-02T02:22:10.861Z,98670.13
2023-01-02T02:25:00.294Z,98668.00
2023-01-02T02:27:57.514Z,98669.53
2023-01-02T02:30:38.246Z,98670.59
2023-01-02T02:33:16.056Z,98676.40
2023-01-02T02:36:19.485Z,98677.98
2023-01-02T02:39:27.696Z,98672.62
2023-01-02T02:42:30.113Z,98669.89
2023-01-02T02:45:05.994Z,98670.11
2023-01-02T02:47:53.887Z,98663.73
2023-01-02T02:50:32.577Z,98668.52
2023-01-02T02:53:14.135Z,98668.46
2023-01-02T02:55:52.717Z,98663.62
2023-01-02T02:58:23.139Z,98661.97
2023-01-02T03:00:51.095Z,98665.36
2023-01-02T03:03:22.991Z,98662.91
2023-01-02T03:06:20.731Z,98663.91
2023-01-02T03:09:12.084Z,98654.34
2023-01-02T03:12:03.120Z,98661.45
2023-01-02T03:15:03.579Z,98657.94
2023-01-02T03:17:51.729Z,98659.47
2023-01-02T03:20:23.853Z,98657.81
2023-01-02T03:22:57.037Z,98652.97
2023-01-02T03:25:25.121Z,98655.91
2023-01-02T03:27:57.607Z,98648.99
2023-01-02T03:30:25.679Z,98646.61
2023-01-02T03:33:00.418Z,98645.02
2023-01-02T03:35:32.884Z,98638.33
2023-01-02T03:38:05.346Z,98638.33
2023-01-02T03:40:40.305Z,98640.78
2023-01-02T03:43:18.388Z,98640.03
2023-01-02T03:46:06.249Z,98648.22
2023-01-02T03:48:43.770Z,98644.20
2023-01-02T03:51:12.804Z,98639.38
2023-01-02T03:53:40.848Z,98638.27
2023-01-02T03:56:43.926Z,98642.03
2023-01-02T03:59:38.465Z,98641.98
2023-01-02T04:02:32.837Z,98647.01
2023-01-02T04:05:24.213Z,98648.33
2023-01-02T04:08:02.982Z,98652.84
2023-01-02T04:10:33.753Z,98649.61
2023-01-02T04:13:06.487Z,98645.08
2023-01-02T04:15:36.696Z,98652.73
2023-01-02T04:18:16.052Z,98654.06
2023-01-02T04:20:49.393Z,98652.73
2023-01-02T04:23:22.103Z,98653.31
2023-01-02T04:26:01.228Z,98662.34
2023-01-02T04:28:32.319Z,98659.48
2023-01-02T04:31:11.434Z,98662.41
2023-01-02T04:33:55.705Z,98662.68
2023-01-02T04:36:24.097Z,98659.22
2023-01-02T04:38:52.477Z,98653.86
2023-01-02T04:41:26.846Z,98647.42
2023-01-02T04:43:58.627Z,98649.53
2023-01-02T04:46:28.712Z,98647.09
2023-01-02T04:48:57.152Z,98641.73
2023-01-02T04:51:25.376Z,98639.00
2023-01-02T04:53:55.229Z,98638.39
2023-01-02T04:56:23.310Z,98641.23
2023-01-02T04:58:51.206Z,98644.05
2023-01-02T05:01:21.123Z,98645.16
2023-01-02T05:03:52.225Z,98638.00
2023-01-02T05:06:20.176Z,98647.34
2023-01-02T05:08:48.074Z,98645.71
2023-01-02T05:11:20.074Z,98650.02
2023-01-02T05:13:48.088Z,98642.39
2023-01-02T05:16:15.864Z,98636.42
2023-01-02T05:18:43.525Z,98640.31
2023-01-02T05:21:31.818Z,98645.48
2023-01-02T05:24:02.991Z,98650.32
2023-01-02T05:26:32.470Z,98651.65
2023-01-02T05:29:01.083Z,98652.97
2023-01-02T05:31:29.383Z,98647.14
2023-01-02T05:33:59.007Z,98649.27
2023-01-02T05:36:27.697Z,98651.39
2023-01-02T05:38:55.748Z,98650.32
2023-01-02T05:41:25.443Z,98655.91
2023-01-02T05:43:55.149Z,98658.03
2023-01-02T05:46:23.161Z,98656.16
2023-01-02T05:48:51.209Z,98651.84
2023-01-02T05:51:20.015Z,98653.45
2023-01-02T05:53:47.878Z,98661.41
2023-01-02T05:56:18.173Z,98668.79
2023-01-02T05:58:48.780Z,98668.77
2023-01-02T06:01:20.675Z,98662.88
2023-01-02T06:03:52.628Z,98673.22
2023-01-02T06:06:23.508Z,98673.95
2023-01-02T06:08:51.333Z,98676.34
2023-01-02T06:11:19.240Z,98674.16
2023-01-02T06:13:47.074Z,98676.80
2023-01-02T06:16:15.040Z,98672.55
2023-01-02T06:18:42.856Z,98672.30
2023-01-02T06:21:15.170Z,98665.94
2023-01-02T06:23:43.611Z,98665.14
2023-01-02T06:26:15.807Z,98663.95
2023-01-02T06:28:45.112Z,98670.09
2023-01-02T06:31:15.378Z,98668.42
2023-01-02T06:33:43.499Z,98672.67
2023-01-02T06:36:18.741Z,98660.78
2023-01-02T06:38:46.878Z,98677.05
2023-01-02T06:41:15.627Z,98677.94
2023-01-02T06:43:47.003Z,98676.56
2023-01-02T06:46:18.725Z,98679.98
2023-01-02T06:48:46.945Z,98676.81
2023-01-02T06:51:18.376Z,98680.64
2023-01-02T06:53:46.057Z,98679.05
2023-01-02T06:56:17.315Z,98681.86
2023-01-02T06:58:45.448Z,98686.53
2023-01-02T07:01:17.811Z,98686.02
2023-01-02T07:03:46.116Z,98689.23
2023-01-02T07:06:18.580Z,98684.94
2023-01-02T07:08:47.536Z,98685.49
2023-01-02T07:11:22.223Z,98686.05
2023-01-02T07:13:53.051Z,98687.70
2023-01-02T07:16:22.885Z,98683.27
2023-01-02T07:18:53.432Z,98690.30
2023-01-02T07:21:22.181Z,98685.00
2023-01-02T07:23:50.091Z,98687.45
2023-01-02T07:26:18.547Z,98693.12
2023-01-02T07:28:47.304Z,98693.67
2023-01-02T07:31:19.030Z,98690.80
2023-01-02T07:33:47.176Z,98687.91
2023-01-02T07:36:18.372Z,98692.17
2023-01-02T07:38:52.358Z,98686.59
2023-01-02T07:41:24.008Z,98685.30
2023-01-02T07:43:57.562Z,98677.55
2023-01-02T07:46:26.009Z,98678.92
2023-01-02T07:48:53.690Z,98684.33
2023-01-02T07:51:26.949Z,98687.83
2023-01-02T07:53:57.124Z,98685.43
2023-01-02T07:56:26.393Z,98686.77
2023-01-02T07:58:54.356Z,98696.41
2023-01-02T08:01:22.578Z,98693.17
2023-01-02T08:03:51.193Z,98694.25
2023-01-02T08:06:19.873Z,98695.30
2023-01-02T08:08:48.485Z,98694.22
2023-01-02T08:11:20.769Z,98688.05
2023-01-02T08:13:49.963Z,98692.33
2023-01-02T08:16:21.040Z,98685.86
2023-01-02T08:18:51.639Z,98686.59
2023-01-02T08:21:19.429Z,98688.70
2023-01-02T08:23:47.418Z,98684.89
2023-01-02T08:26:15.580Z,98686.72
2023-01-02T08:28:43.647Z,98682.65
2023-01-02T08:31:17.909Z,98677.49
2023-01-02T08:33:55.497Z,98676.64
2023-01-02T08:36:24.141Z,98672.55
2023-01-02T08:38:54.311Z,98673.89
2023-01-02T08:41:40.300Z,98670.06
2023-01-02T08:44:08.579Z,98667.30
2023-01-02T08:46:42.284Z,98661.34
2023-01-02T08:49:09.143Z,98658.63
2023-01-02T08:51:37.149Z,98659.89
2023-01-02T08:54:05.468Z,98662.17
2023-01-02T08:56:35.037Z,98655.61
2023-01-02T08:59:09.608Z,98654.95
2023-01-02T09:01:41.475Z,98654.78
2023-01-02T09:04:12.917Z,98645.00
2023-01-02T09:06:52.547Z,98644.60
2023-01-02T09:09:23.457Z,98641.79
2023-01-02T09:47:21.526Z,98588.34
2023-01-02T09:50:03.061Z,98591.00
2023-01-02T09:52:38.552Z,98585.01
2023-01-02T09:55:19.169Z,98579.88
2023-01-02T09:57:55.650Z,98574.33
2023-01-02T10:00:30.233Z,98567.87
2023-01-02T10:03:15.283Z,98566.77
2023-01-02T10:06:11.570Z,98559.00
2023-01-02T10:09:24.585Z,98556.98
2023-01-02T10:12:00.821Z,98557.82
2023-01-02T10:14:56.234Z,98548.92
2023-01-02T10:17:27.751Z,98544.45
2023-01-02T10:20:25.732Z,98541.08
2023-01-02T10:22:57.997Z,98530.55
2023-01-02T10:25:39.593Z,98527.12
2023-01-02T10:28:32.646Z,98518.88
2023-01-02T10:31:07.642Z,98523.21
2023-01-02T10:33:44.016Z,98519.62
2023-01-02T10:36:28.928Z,98519.41
2023-01-02T10:39:21.664Z,98510.78
2023-01-02T10:41:54.262Z,98508.59
2023-01-02T10:44:30.104Z,98504.70
2023-01-02T10:46:59.582Z,98499.16
2023-01-02T10:49:27.394Z,98501.53
2023-01-02T10:52:22.349Z,98497.63
2023-01-02T10:54:59.882Z,98489.27
2023-01-02T10:57:44.620Z,98486.23
2023-01-02T11:00:28.260Z,98477.57
2023-01-02T11:03:02.016Z,98481.61
2023-01-02T11:05:31.363Z,98475.41
2023-01-02T11:07:59.873Z,98475.45
2023-01-02T11:10:34.462Z,98473.00
2023-01-02T11:13:11.832Z,98465.67
2023-01-02T11:16:00.161Z,98465.11
2023-01-02T11:18:32.262Z,98457.48
2023-01-02T11:21:04.216Z,98460.41
2023-01-02T11:23:42.790Z,98456.50
2023-01-02T11:26:16.063Z,98451.80
2023-01-02T11:28:43.941Z,98447.33
2023-01-02T11:31:14.794Z,98440.06
2023-01-02T11:33:44.047Z,98438.29
2023-01-02T11:36:17.124Z,98442.83
2023-01-02T11:38:51.412Z,98438.20
2023-01-02T11:41:59.364Z,98433.58
2023-01-02T11:44:49.243Z,98434.21
2023-01-02T11:47:22.442Z,98428.83
2023-01-02T11:49:50.967Z,98425.70
2023-01-02T11:52:24.199Z,98432.16
2023-01-02T11:55:18.474Z,98428.69
2023-01-02T11:58:01.429Z,98424.00
2023-01-02T12:00:32.690Z,98425.19
2023-01-02T12:03:18.323Z,98425.33
2023-01-02T12:06:06.786Z,98430.97
2023-01-02T12:08:57.473Z,98424.20
2023-01-02T12:11:45.751Z,98412.80
2023-01-02T12:14:23.827Z,98413.50
2023-01-02T12:17:17.799Z,98410.23
2023-01-02T12:20:25.868Z,98411.50
2023-01-02T12:23:15.997Z,98413.55
2023-01-02T12:25:49.454Z,98398.24
2023-01-02T12:28:57.073Z,98409.66
2023-01-02T12:32:01.204Z,98409.64
2023-01-02T12:34:50.309Z,98401.23
2023-01-02T12:37:48.423Z,98402.81
2023-01-02T12:40:50.135Z,98404.59
2023-01-02T12:43:36.275Z,98396.59
2023-01-02T12:46:48.838Z,98400.25
2023-01-02T12:49:40.574Z,98403.16
2023-01-02T12:52:20.285Z,98405.02
2023-01-02T12:55:02.691Z,98406.64
2023-01-02T12:57:56.500Z,98401.39
2023-01-02T13:00:55.902Z,98395.84
2023-01-02T13:03:44.588Z,98393.40
2023-01-02T13:06:50.317Z,98393.52
2023-01-02T13:09:37.909Z,98389.25
2023-01-02T13:12:29.083Z,98392.22
2023-01-02T13:15:13.582Z,98394.05
2023-01-02T13:18:10.956Z,98392.97
2023-01-02T13:21:10.045Z,98388.60
2023-01-02T13:23:43.657Z,98387.73
2023-01-02T13:26:22.529Z,98390.69
2023-01-02T13:29:06.270Z,98395.23
2023-01-02T13:31:47.508Z,98386.52
2023-01-02T13:34:27.983Z,98391.86
2023-01-02T13:37:13.001Z,98389.70
2023-01-02T13:39:45.602Z,98386.38
2023-01-02T13:42:48.944Z,98384.95
2023-01-02T13:45:24.042Z,98384.63
2023-01-02T13:48:03.324Z,98394.22
2023-01-02T13:50:34.817Z,98392.47
2023-01-02T13:53:25.952Z,98392.30
2023-01-02T13:56:11.429Z,98393.00
2023-01-02T13:58:47.475Z,98388.95
2023-01-02T14:01:26.460Z,98388.61
2023-01-02T14:04:19.166Z,98386.44
2023-01-02T14:06:53.678Z,98389.42
2023-01-02T14:09:20.787Z,98380.09
2023-01-02T14:11:58.637Z,98384.97
2023-01-02T14:14:48.124Z,98387.94
2023-01-02T14:17:33.422Z,98383.36
2023-01-02T14:20:36.455Z,98384.48
2023-01-02T14:23:08.292Z,98383.16
2023-01-02T14:25:46.423Z,98380.45
2023-01-02T14:28:29.010Z,98377.95
2023-01-02T14:30:58.023Z,98379.25
2023-01-02T14:33:35.586Z,98377.91
2023-01-02T14:36:14.539Z,98376.25
2023-01-02T14:38:56.843Z,98373.47
2023-01-02T14:42:11.903Z,98369.14
2023-01-02T14:44:59.795Z,98376.33
2023-01-02T14:47:40.908Z,98375.26
2023-01-02T14:50:23.084Z,98373.66
2023-01-02T14:53:29.895Z,98372.20
2023-01-02T14:56:00.985Z,98374.88
2023-01-02T14:58:45.133Z,98374.64
2023-01-02T15:01:42.848Z,98378.05
2023-01-02T15:04:27.647Z,98382.52
2023-01-02T15:07:19.086Z,98381.67
2023-01-02T15:09:58.366Z,98383.24
2023-01-02T15:12:49.097Z,98381.08
2023-01-02T15:15:22.022Z,98384.25
2023-01-02T15:17:54.664Z,98384.66
2023-01-02T15:20:26.783Z,98380.00
2023-01-02T17:02:26.774Z,98403.55
2023-01-02T17:04:54.612Z,98402.47
2023-01-02T17:07:22.795Z,98395.56
2023-01-02T17:09:50.992Z,98399.55
2023-01-02T17:12:19.067Z,98401.95
2023-01-02T17:14:47.039Z,98405.43
2023-01-02T17:17:14.723Z,98403.84
2023-01-02T17:19:42.617Z,98404.11
2023-01-02T17:22:10.603Z,98408.10
2023-01-02T17:24:38.889Z,98405.42
2023-01-02T17:27:06.745Z,98403.54
2023-01-02T17:29:34.652Z,98401.43
2023-01-02T17:32:02.758Z,98398.74
2023-01-02T17:34:32.117Z,98397.14
2023-01-02T17:36:59.981Z,98398.45
2023-01-02T17:39:27.869Z,98403.02
2023-01-02T17:41:55.719Z,98401.67
2023-01-02T17:44:23.588Z,98410.20
2023-01-02T17:47:23.362Z,98405.92
2023-01-02T17:49:22.835Z,98404.31
2023-01-02T17:51:53.175Z,98408.30
2023-01-02T17:54:21.916Z,98401.37
2023-01-02T17:56:51.632Z,98403.22
2023-01-02T17:59:19.693Z,98400.28
2023-01-02T18:01:48.851Z,98401.09
2023-01-02T18:04:17.930Z,98401.63
2023-01-02T18:06:46.195Z,98400.81
2023-01-02T18:09:24.114Z,98403.73
2023-01-02T18:11:52.338Z,98402.66
2023-01-02T18:14:27.907Z,98404.52
2023-01-02T18:16:56.907Z,98402.90
2023-01-02T18:19:29.571Z,98408.22
2023-01-02T18:21:57.448Z,98407.43
2023-01-02T18:24:31.743Z,98403.42
2023-01-02T18:27:20.150Z,98402.60
2023-01-02T18:30:12.058Z,98395.66
2023-01-02T18:32:49.824Z,98405.50
2023-01-02T18:38:23.907Z,98409.99
2023-01-02T18:40:52.885Z,98405.16
2023-01-02T18:43:37.450Z,98407.26
2023-01-02T18:46:18.518Z,98405.92
2023-01-02T18:48:47.328Z,98403.77
2023-01-02T18:51:22.863Z,98402.16
2023-01-02T18:53:53.482Z,98400.27
2023-01-02T18:56:31.043Z,98402.64
2023-01-02T18:59:25.443Z,98405.84
2023-01-02T19:01:55.247Z,98406.09
2023-01-02T19:04:28.877Z,98399.94
2023-01-02T19:07:01.546Z,98400.98
2023-01-02T19:09:38.399Z,98402.56
2023-01-02T19:12:36.419Z,98400.97
2023-01-02T19:15:46.338Z,98403.08
2023-01-02T19:18:26.987Z,98398.27
2023-01-02T19:21:11.738Z,98403.59
2023-01-02T19:24:05.866Z,98379.78
2023-01-02T19:26:45.521Z,98404.61
2023-01-02T19:29:27.761Z,98405.65
2023-01-02T19:36:42.966Z,98401.34
2023-01-02T19:39:47.824Z,98400.76
2023-01-02T19:46:56.939Z,98400.17
2023-01-02T19:49:32.948Z,98406.23
2023-01-02T19:52:01.781Z,98407.55
2023-01-02T19:55:10.300Z,98403.55
2023-01-02T20:00:58.447Z,98408.05
2023-01-02T20:03:48.994Z,98406.92
2023-01-02T20:06:18.767Z,98412.77
2023-01-02T20:08:47.233Z,98418.30
2023-01-02T20:11:33.610Z,98417.20
2023-01-02T20:14:01.946Z,98412.39
2023-01-02T20:16:30.476Z,98410.99
2023-01-02T20:18:58.509Z,98415.78
2023-01-02T20:21:29.277Z,98412.55
2023-01-02T20:23:57.740Z,98413.09
2023-01-02T20:26:25.722Z,98417.08
2023-01-02T20:28:53.948Z,98411.20
2023-01-02T20:31:21.985Z,98411.45
2023-01-02T20:33:50.162Z,98409.56
2023-01-02T20:36:18.547Z,98412.45
2023-01-02T20:38:46.790Z,98413.75
2023-01-02T20:41:14.805Z,98411.89
2023-01-02T20:43:43.146Z,98409.46
2023-01-02T20:46:11.232Z,98408.09
2023-01-02T20:48:39.452Z,98408.06
2023-01-02T20:51:07.229Z,98409.09
2023-01-02T20:53:36.271Z,98406.16
2023-01-02T20:56:07.667Z,98407.98
2023-01-02T20:58:35.396Z,98405.30
2023-01-02T21:01:03.321Z,98403.42
2023-01-02T21:03:33.905Z,98399.14
2023-01-02T21:06:01.671Z,98401.00
2023-01-02T21:08:29.879Z,98400.70
2023-01-02T21:10:57.770Z,98402.56
2023-01-02T21:13:25.923Z,98394.05
2023-01-02T21:15:57.543Z,98395.08
2023-01-02T21:18:29.991Z,98396.94
2023-01-02T21:21:02.004Z,98389.76
2023-01-02T21:23:30.825Z,98390.56
2023-01-02T21:25:59.362Z,98384.45
2023-01-02T21:28:27.493Z,98392.42
2023-01-02T21:30:55.981Z,98386.00
2023-01-02T21:33:28.719Z,98392.37
2023-01-02T21:36:01.639Z,98391.28
2023-01-02T21:38:30.151Z,98387.83
2023-01-02T21:41:17.164Z,98394.20
2023-01-02T21:43:45.928Z,98385.93
2023-01-02T21:46:14.457Z,98386.16
2023-01-02T21:48:42.468Z,98382.70
2023-01-02T21:51:10.573Z,98386.69
2023-01-02T21:53:38.640Z,98386.42
2023-01-02T21:56:07.846Z,98389.34
2023-01-02T21:58:36.070Z,98388.77
2023-01-02T22:01:04.247Z,98389.30
2023-01-02T22:03:32.326Z,98387.97
2023-01-02T22:06:00.277Z,98389.03
2023-01-02T22:08:28.224Z,98388.47
2023-01-02T22:10:57.955Z,98389.27
2023-01-02T22:13:25.824Z,98387.66
2023-01-02T22:15:53.873Z,98386.34
2023-01-02T22:18:21.653Z,98387.09
2023-01-02T22:20:49.776Z,98380.45
2023-01-02T22:23:17.814Z,98378.30
2023-01-02T22:25:45.637Z,98382.01
2023-01-02T22:28:13.633Z,98373.50
2023-01-02T22:30:41.267Z,98381.47
2023-01-02T22:33:11.685Z,98378.81
2023-01-02T22:35:39.529Z,98376.97
2023-01-02T22:38:07.275Z,98373.81
2023-01-02T22:40:35.037Z,98374.04
2023-01-02T22:43:04.769Z,98376.47
2023-01-02T22:45:38.018Z,98369.30
2023-01-02T22:48:12.283Z,98366.11
2023-01-02T22:50:47.064Z,98365.32
2023-01-02T22:53:33.196Z,98363.49
2023-01-02T22:56:04.818Z,98362.97
2023-01-02T22:58:32.674Z,98367.22
2023-01-02T23:01:04.034Z,98366.95
2023-01-02T23:03:41.984Z,98360.05
2023-01-02T23:06:10.348Z,98364.83
2023-01-02T23:08:40.420Z,98366.95
2023-01-02T23:11:10.191Z,98361.38
2023-01-02T23:13:39.222Z,98360.84
2023-01-02T23:16:26.658Z,98365.13
2023-01-02T23:19:14.302Z,98360.61
2023-01-02T23:21:46.188Z,98363.27
2023-01-02T23:24:19.109Z,98358.98
2023-01-02T23:26:51.844Z,98359.02
2023-01-02T23:29:21.542Z,98346.53
2023-01-02T23:31:50.900Z,98348.36
2023-01-02T23:34:23.425Z,98341.72
2023-01-02T23:36:54.311Z,98345.66
2023-01-02T23:39:27.185Z,98345.09
2023-01-02T23:41:56.006Z,98346.42
2023-01-02T23:44:25.670Z,98345.09
2023-01-02T23:46:54.739Z,98347.17
2023-01-02T23:49:23.135Z,98346.08
2023-01-02T23:51:51.646Z,98345.80
2023-01-02T23:54:20.595Z,98342.27
2023-01-02T23:56:50.619Z,98342.23
2023-01-02T23:59:22.669Z,98334.98
